createdAt,value
2022-12-13T00:00:19.366Z,-6.29
2022-12-13T00:05:20.946Z,-6.34
2022-12-13T00:10:22.536Z,-6.39
2022-12-13T00:15:24.086Z,-6.39
2022-12-13T00:20:25.661Z,-6.41
2022-12-13T00:25:27.546Z,-6.41
2022-12-13T00:30:31.759Z,-6.40
2022-12-13T00:35:34.542Z,-6.42
2022-12-13T00:40:36.199Z,-6.46
2022-12-13T00:45:38.344Z,-6.53
2022-12-13T00:50:40.565Z,-6.52
2022-12-13T00:55:42.249Z,-6.58
2022-12-13T01:00:43.822Z,-6.65
2022-12-13T01:06:14.138Z,-6.69
2022-12-13T01:11:08.148Z,-6.67
2022-12-13T01:16:11.372Z,-6.72
2022-12-13T01:21:16.054Z,-6.76
2022-12-13T01:26:20.291Z,-6.87
2022-12-13T01:31:22.184Z,-6.93
2022-12-13T01:36:27.832Z,-6.97
2022-12-13T01:41:32.284Z,-7.00
2022-12-13T01:46:35.944Z,-6.99
2022-12-13T01:51:52.376Z,-6.98
2022-12-13T01:57:00.711Z,-7.01
2022-12-13T02:02:03.445Z,-7.03
2022-12-13T02:07:05.792Z,-7.00
2022-12-13T02:12:07.601Z,-7.01
2022-12-13T02:17:24.503Z,-6.96
2022-12-13T02:23:03.922Z,-6.94
2022-12-13T02:28:48.904Z,-6.91
2022-12-13T02:33:58.444Z,-6.87
2022-12-13T02:39:09.436Z,-6.81
2022-12-13T02:44:22.945Z,-6.77
2022-12-13T02:49:31.070Z,-6.82
2022-12-13T02:54:33.281Z,-6.87
2022-12-13T02:59:39.332Z,-6.84
2022-12-13T03:05:28.390Z,-6.86
2022-12-13T03:10:33.246Z,-6.91
2022-12-13T03:15:47.645Z,-6.91
2022-12-13T03:20:53.003Z,-7.01
2022-12-13T03:25:59.467Z,-7.05
2022-12-13T03:31:01.119Z,-7.01
2022-12-13T03:36:03.497Z,-6.95
2022-12-13T03:41:14.054Z,-6.96
2022-12-13T03:46:16.102Z,-6.96
2022-12-13T03:51:17.681Z,-6.96
2022-12-13T03:56:19.254Z,-6.93
2022-12-13T04:01:22.119Z,-6.85
2022-12-13T04:06:26.380Z,-6.86
2022-12-13T04:11:49.885Z,-6.85
2022-12-13T04:16:52.349Z,-6.96
2022-12-13T04:21:54.976Z,-7.07
2022-12-13T04:26:56.525Z,-7.08
2022-12-13T04:32:04.742Z,-7.08
2022-12-13T04:37:06.497Z,-7.14
2022-12-13T04:42:08.048Z,-7.15
2022-12-13T04:47:09.594Z,-7.16
2022-12-13T04:52:11.298Z,-7.26
2022-12-13T04:57:13.269Z,-7.32
2022-12-13T05:02:14.935Z,-7.34
2022-12-13T05:07:26.663Z,-7.39
2022-12-13T05:12:28.236Z,-7.41
2022-12-13T05:17:29.884Z,-7.43
2022-12-13T05:22:31.447Z,-7.51
2022-12-13T05:27:33.120Z,-7.52
2022-12-13T05:32:43.465Z,-7.52
2022-12-13T05:37:46.701Z,-7.52
2022-12-13T05:43:01.331Z,-7.57
2022-12-13T05:48:03.808Z,-7.56
2022-12-13T05:53:06.932Z,-7.57
2022-12-13T05:58:13.188Z,-7.54
2022-12-13T06:03:15.290Z,-7.58
2022-12-13T06:08:24.015Z,-7.61
2022-12-13T06:13:31.912Z,-7.65
2022-12-13T06:18:35.843Z,-7.65
2022-12-13T06:23:37.541Z,-7.65
2022-12-13T06:28:39.078Z,-7.63
2022-12-13T06:33:40.670Z,-7.62
2022-12-13T06:38:43.291Z,-7.64
2022-12-13T06:43:48.368Z,-7.65
2022-12-13T06:48:52.109Z,-7.67
2022-12-13T06:53:53.734Z,-7.62
2022-12-13T06:59:01.656Z,-7.58
2022-12-13T07:04:03.706Z,-7.61
2022-12-13T07:09:05.512Z,-7.63
2022-12-13T07:14:07.742Z,-7.68
2022-12-13T07:19:22.822Z,-7.67
2022-12-13T07:24:29.396Z,-7.71
2022-12-13T07:29:32.176Z,-7.70
2022-12-13T07:34:43.612Z,-7.67
2022-12-13T07:39:46.612Z,-7.61
2022-12-13T07:44:51.355Z,-7.56
2022-12-13T07:49:54.888Z,-7.53
2022-12-13T07:55:05.873Z,-7.48
2022-12-13T08:00:08.333Z,-7.43
2022-12-13T08:05:26.883Z,-7.38
2022-12-13T08:10:31.719Z,-7.32
2022-12-13T08:15:33.777Z,-7.28
2022-12-13T08:20:35.484Z,-7.18
2022-12-13T08:25:38.314Z,-7.11
2022-12-13T08:30:39.950Z,-7.04
2022-12-13T08:35:43.575Z,-6.90
2022-12-13T08:40:46.193Z,-6.79
2022-12-13T08:45:50.615Z,-6.72
2022-12-13T08:50:52.290Z,-6.60
2022-12-13T08:55:54.974Z,-6.47
2022-12-13T09:00:56.690Z,-6.30
2022-12-13T09:05:58.294Z,-6.14
2022-12-13T09:11:11.479Z,-5.96
2022-12-13T09:16:24.814Z,-5.83
2022-12-13T09:21:31.874Z,-5.68
2022-12-13T09:26:38.230Z,-5.56
2022-12-13T09:31:41.241Z,-5.43
2022-12-13T09:36:43.060Z,-5.30
2022-12-13T09:41:49.484Z,-5.24
2022-12-13T09:46:53.661Z,-5.12
2022-12-13T09:52:11.041Z,-5.06
2022-12-13T09:57:34.122Z,-4.96
2022-12-13T10:02:43.708Z,-4.86
2022-12-13T10:07:46.207Z,-4.75
2022-12-13T10:12:58.273Z,-4.49
2022-12-13T10:18:29.461Z,-4.36
2022-12-13T10:23:42.573Z,-4.24
2022-12-13T10:29:11.576Z,-4.09
2022-12-13T10:34:22.093Z,-4.02
2022-12-13T10:39:43.028Z,-3.94
2022-12-13T10:44:45.837Z,-3.87
2022-12-13T10:49:59.076Z,-3.76
2022-12-13T10:55:23.343Z,-3.67
2022-12-13T11:00:34.928Z,-3.59
2022-12-13T11:05:38.513Z,-3.53
2022-12-13T11:10:40.679Z,-3.51
2022-12-13T11:15:42.736Z,-3.49
2022-12-13T11:20:56.705Z,-3.47
2022-12-13T11:26:11.445Z,-3.42
2022-12-13T11:36:53.859Z,-3.37
2022-12-13T11:42:08.802Z,-3.34
2022-12-13T11:47:21.755Z,-3.40
2022-12-13T11:52:27.027Z,-3.33
2022-12-13T11:58:00.077Z,-3.29
2022-12-13T12:03:21.789Z,-3.17
2022-12-13T12:08:38.860Z,-3.07
2022-12-13T12:13:50.852Z,-3.05
2022-12-13T12:18:53.607Z,-3.04
2022-12-13T12:24:07.380Z,-3.04
2022-12-13T12:29:20.484Z,-3.08
2022-12-13T12:34:45.874Z,-3.05
2022-12-13T12:40:35.706Z,-3.01
2022-12-13T12:46:06.251Z,-2.99
2022-12-13T12:51:29.382Z,-2.91
2022-12-13T12:56:38.173Z,-2.88
2022-12-13T13:02:10.811Z,-2.80
2022-12-13T13:07:23.199Z,-2.72
2022-12-13T13:12:30.139Z,-2.68
2022-12-13T13:17:32.124Z,-2.59
2022-12-13T13:22:43.527Z,-2.54
2022-12-13T13:27:49.155Z,-2.52
2022-12-13T13:32:56.616Z,-2.46
2022-12-13T13:38:01.021Z,-2.48
2022-12-13T13:43:05.396Z,-2.52
2022-12-13T13:48:15.312Z,-2.56
2022-12-13T13:53:34.494Z,-2.57
2022-12-13T13:58:51.329Z,-2.57
2022-12-13T14:04:37.933Z,-2.61
2022-12-13T14:10:12.282Z,-2.60
2022-12-13T14:15:49.916Z,-2.61
2022-12-13T14:21:05.840Z,-2.61
2022-12-13T14:26:32.382Z,-2.64
2022-12-13T14:31:41.039Z,-2.66
2022-12-13T14:36:48.011Z,-2.65
2022-12-13T14:41:56.569Z,-2.67
2022-12-13T14:47:11.966Z,-2.66
2022-12-13T14:52:25.909Z,-2.67
2022-12-13T14:57:31.933Z,-2.68
2022-12-13T15:02:33.842Z,-2.68
2022-12-13T15:07:41.384Z,-2.81
2022-12-13T15:12:44.788Z,-2.99
2022-12-13T15:17:46.363Z,-3.13
2022-12-13T15:23:01.873Z,-3.22
2022-12-13T15:28:13.577Z,-3.32
2022-12-13T15:33:29.045Z,-3.41
2022-12-13T15:38:45.291Z,-3.49
2022-12-13T15:43:51.370Z,-3.56
2022-12-13T15:48:55.272Z,-3.61
2022-12-13T15:54:09.059Z,-3.68
2022-12-13T15:59:32.090Z,-3.74
2022-12-13T16:04:33.699Z,-3.78
2022-12-13T16:09:38.168Z,-3.79
2022-12-13T16:14:49.225Z,-3.81
2022-12-13T16:19:53.255Z,-3.84
2022-12-13T16:24:56.514Z,-3.81
2022-12-13T16:29:58.489Z,-3.82
2022-12-13T16:35:00.066Z,-3.85
2022-12-13T16:40:30.223Z,-3.86
2022-12-13T16:45:42.585Z,-3.83
2022-12-13T16:50:50.081Z,-3.82
2022-12-13T16:55:59.691Z,-3.80
2022-12-13T17:01:02.649Z,-3.79
2022-12-13T17:06:04.663Z,-3.79
2022-12-13T17:11:07.027Z,-3.76
2022-12-13T17:16:08.695Z,-3.75
2022-12-13T17:21:10.620Z,-3.76
2022-12-13T17:26:12.266Z,-3.80
2022-12-13T17:31:14.027Z,-3.80
2022-12-13T17:36:16.552Z,-3.85
2022-12-13T17:41:18.341Z,-3.85
2022-12-13T17:46:20.074Z,-3.83
2022-12-13T17:51:21.846Z,-3.85
2022-12-13T17:56:23.467Z,-3.87
2022-12-13T18:01:26.618Z,-3.89
2022-12-13T18:06:28.296Z,-3.86
2022-12-13T18:11:33.995Z,-3.87
2022-12-13T18:16:38.521Z,-3.87
2022-12-13T18:21:45.974Z,-3.89
2022-12-13T18:26:47.506Z,-3.88
2022-12-13T18:31:49.064Z,-3.84
2022-12-13T18:36:50.667Z,-3.85
2022-12-13T18:41:53.428Z,-3.85
2022-12-13T18:46:55.047Z,-3.77
2022-12-13T18:51:56.889Z,-3.73
2022-12-13T18:56:58.462Z,-3.73
2022-12-13T19:02:00.836Z,-3.65
2022-12-13T19:07:02.521Z,-3.62
2022-12-13T19:12:04.444Z,-3.60
2022-12-13T19:17:06.024Z,-3.59
2022-12-13T19:22:07.810Z,-3.55
2022-12-13T19:27:09.339Z,-3.54
2022-12-13T19:32:10.871Z,-3.50
2022-12-13T19:37:12.644Z,-3.51
2022-12-13T19:42:15.402Z,-3.48
2022-12-13T19:47:16.980Z,-3.50
2022-12-13T19:52:18.509Z,-3.47
2022-12-13T19:57:20.035Z,-3.40
2022-12-13T20:02:21.566Z,-3.44
2022-12-13T20:07:24.722Z,-3.47
2022-12-13T20:12:26.282Z,-3.43
2022-12-13T20:17:27.926Z,-3.41
2022-12-13T20:22:29.513Z,-3.42
2022-12-13T20:27:31.075Z,-3.46
2022-12-13T20:32:34.053Z,-3.42
2022-12-13T20:37:35.616Z,-3.37
2022-12-13T20:42:37.169Z,-3.40
2022-12-13T20:47:38.699Z,-3.43
2022-12-13T20:52:40.215Z,-3.44
2022-12-13T20:57:41.755Z,-3.43
2022-12-13T21:02:44.557Z,-3.42
2022-12-13T21:08:04.693Z,-3.41
2022-12-13T21:13:06.225Z,-3.38
2022-12-13T21:18:07.750Z,-3.36
2022-12-13T21:23:09.261Z,-3.37
2022-12-13T21:28:12.892Z,-3.34
2022-12-13T21:33:14.423Z,-3.36
2022-12-13T21:38:15.981Z,-3.36
2022-12-13T21:43:17.539Z,-3.33
2022-12-13T21:48:19.570Z,-3.26
2022-12-13T21:53:21.091Z,-3.19
2022-12-13T21:58:41.357Z,-3.11
2022-12-13T22:03:42.882Z,-3.05
2022-12-13T22:08:44.475Z,-2.99
2022-12-13T22:13:48.419Z,-2.98
2022-12-13T22:18:54.113Z,-2.97
2022-12-13T22:23:55.870Z,-2.93
2022-12-13T22:28:58.509Z,-2.87
2022-12-13T22:34:00.101Z,-2.83
2022-12-13T22:39:01.676Z,-2.70
2022-12-13T22:44:03.349Z,-2.60
2022-12-13T22:49:05.087Z,-2.43
2022-12-13T22:54:06.961Z,-2.37
2022-12-13T22:59:08.498Z,-2.36
2022-12-13T23:04:11.621Z,-2.26
2022-12-13T23:09:15.497Z,-2.05
2022-12-13T23:14:20.183Z,-1.89
2022-12-13T23:24:43.456Z,-1.70
2022-12-13T23:29:45.007Z,-1.70
2022-12-13T23:34:46.553Z,-1.78
2022-12-13T23:39:48.197Z,-1.85
2022-12-13T23:44:49.711Z,-1.83
2022-12-13T23:49:51.236Z,-1.87
2022-12-13T23:54:52.774Z,-1.84
2022-12-13T23:59:54.307Z,-1.82
